createdAt,value
2022-08-01T00:00:31.065Z,20.41
2022-08-01T00:03:19.974Z,20.39
2022-08-01T00:05:49.006Z,20.28
2022-08-01T00:08:17.596Z,20.27
2022-08-01T00:11:05.354Z,20.25
2022-08-01T00:13:43.982Z,20.22
2022-08-01T00:16:33.685Z,20.23
2022-08-01T00:19:02.247Z,20.28
2022-08-01T00:21:30.621Z,20.24
2022-08-01T00:23:58.953Z,20.21
2022-08-01T00:26:27.404Z,20.16
2022-08-01T00:28:55.986Z,20.17
2022-08-01T00:31:28.152Z,20.19
2022-08-01T00:33:58.956Z,20.07
2022-08-01T00:36:30.791Z,20.05
2022-08-01T00:38:59.295Z,20.10
2022-08-01T00:41:27.775Z,20.10
2022-08-01T00:43:56.301Z,20.03
2022-08-01T00:46:24.997Z,19.94
2022-08-01T00:48:56.106Z,19.93
2022-08-01T00:51:25.009Z,19.87
2022-08-01T00:53:55.150Z,19.87
2022-08-01T00:56:26.489Z,19.83
2022-08-01T00:58:56.538Z,19.83
2022-08-01T01:01:25.200Z,19.81
2022-08-01T01:04:08.741Z,19.76
2022-08-01T01:07:08.433Z,19.77
2022-08-01T01:09:39.265Z,19.79
2022-08-01T01:12:25.700Z,19.78
2022-08-01T01:15:13.257Z,19.69
2022-08-01T01:18:04.707Z,19.61
2022-08-01T01:20:47.472Z,19.54
2022-08-01T01:23:24.868Z,19.48
2022-08-01T01:26:18.382Z,19.47
2022-08-01T01:29:10.429Z,19.40
2022-08-01T01:31:47.617Z,19.21
2022-08-01T01:34:20.038Z,19.06
2022-08-01T01:36:50.734Z,19.02
2022-08-01T01:39:21.062Z,18.95
2022-08-01T01:41:51.068Z,18.86
2022-08-01T01:44:19.928Z,18.80
2022-08-01T01:47:02.971Z,18.84
2022-08-01T01:49:43.680Z,18.93
2022-08-01T01:52:18.167Z,18.95
2022-08-01T01:54:52.807Z,18.95
2022-08-01T01:57:29.142Z,18.95
2022-08-01T02:00:00.155Z,18.96
2022-08-01T02:02:31.490Z,18.92
2022-08-01T02:05:01.854Z,18.92
2022-08-01T02:07:31.792Z,18.94
2022-08-01T02:10:04.234Z,18.95
2022-08-01T02:12:37.530Z,18.94
2022-08-01T02:15:20.586Z,19.06
2022-08-01T02:17:52.008Z,19.14
2022-08-01T02:20:26.308Z,19.12
2022-08-01T02:23:01.681Z,19.14
2022-08-01T02:26:09.137Z,19.19
2022-08-01T02:29:07.145Z,19.26
2022-08-01T02:31:40.018Z,19.34
2022-08-01T02:34:14.449Z,19.33
2022-08-01T02:36:45.655Z,19.33
2022-08-01T02:39:21.348Z,19.35
2022-08-01T02:42:00.479Z,19.33
2022-08-01T02:44:34.190Z,19.33
2022-08-01T02:47:14.935Z,19.33
2022-08-01T02:49:54.648Z,19.33
2022-08-01T02:52:28.316Z,19.34
2022-08-01T02:55:03.514Z,19.36
2022-08-01T02:57:51.582Z,19.31
2022-08-01T03:00:23.682Z,19.35
2022-08-01T03:03:17.007Z,19.47
2022-08-01T03:05:51.956Z,19.49
2022-08-01T03:08:23.903Z,19.51
2022-08-01T03:10:58.394Z,19.53
2022-08-01T03:13:47.766Z,19.64
2022-08-01T03:16:18.124Z,19.76
2022-08-01T03:18:48.596Z,19.83
2022-08-01T03:21:17.454Z,19.82
2022-08-01T03:23:58.440Z,19.82
2022-08-01T03:26:30.626Z,19.84
2022-08-01T03:29:20.527Z,19.87
2022-08-01T03:31:52.955Z,20.01
2022-08-01T03:34:29.773Z,20.14
2022-08-01T03:37:03.130Z,20.10
2022-08-01T03:39:38.830Z,20.05
2022-08-01T03:42:14.537Z,20.03
2022-08-01T03:45:05.233Z,19.89
2022-08-01T03:47:43.740Z,19.85
2022-08-01T03:50:15.382Z,19.92
2022-08-01T03:52:52.966Z,20.00
2022-08-01T03:55:23.277Z,20.03
2022-08-01T03:57:52.806Z,20.00
2022-08-01T04:00:28.975Z,19.96
2022-08-01T04:03:02.013Z,19.96
2022-08-01T04:05:30.187Z,20.03
2022-08-01T04:08:00.540Z,20.10
2022-08-01T04:10:29.579Z,20.09
2022-08-01T04:12:57.790Z,20.06
2022-08-01T04:15:26.466Z,20.07
2022-08-01T04:18:04.754Z,20.22
2022-08-01T04:20:32.927Z,20.30
2022-08-01T04:23:02.215Z,20.32
2022-08-01T04:25:35.553Z,20.34
2022-08-01T04:28:08.827Z,20.39
2022-08-01T04:30:39.948Z,20.32
2022-08-01T04:33:13.347Z,20.33
2022-08-01T04:36:05.759Z,20.61
2022-08-01T04:38:40.629Z,20.72
2022-08-01T04:41:12.472Z,20.63
2022-08-01T04:43:44.199Z,20.69
2022-08-01T04:46:22.748Z,20.84
2022-08-01T04:48:52.556Z,20.92
2022-08-01T04:51:23.516Z,20.88
2022-08-01T04:53:56.136Z,20.80
2022-08-01T04:56:25.077Z,20.93
2022-08-01T04:59:19.895Z,21.01
2022-08-01T05:01:57.255Z,21.12
2022-08-01T05:04:26.663Z,21.16
2022-08-01T05:06:55.321Z,21.19
2022-08-01T05:09:30.976Z,21.29
2022-08-01T05:12:02.625Z,21.26
2022-08-01T05:14:34.904Z,21.24
2022-08-01T05:17:26.242Z,21.42
2022-08-01T05:19:54.859Z,21.43
2022-08-01T05:22:28.083Z,21.41
2022-08-01T05:24:56.378Z,21.39
2022-08-01T05:27:41.095Z,21.45
2022-08-01T05:30:11.808Z,21.47
2022-08-01T05:32:43.130Z,21.54
2022-08-01T05:35:14.703Z,21.68
2022-08-01T05:37:46.589Z,21.70
2022-08-01T05:40:18.941Z,21.66
2022-08-01T05:42:50.003Z,21.65
2022-08-01T05:45:22.296Z,21.76
2022-08-01T05:47:50.816Z,21.76
2022-08-01T05:50:40.088Z,21.78
2022-08-01T05:53:37.723Z,21.91
2022-08-01T05:56:06.135Z,22.03
2022-08-01T05:58:38.552Z,22.01
2022-08-01T06:01:17.729Z,22.21
2022-08-01T06:03:46.629Z,22.29
2022-08-01T06:06:17.231Z,22.26
2022-08-01T06:08:50.017Z,22.17
2022-08-01T06:11:42.616Z,22.27
2022-08-01T06:14:11.062Z,22.49
2022-08-01T06:17:29.310Z,22.63
2022-08-01T06:20:21.089Z,22.84
2022-08-01T06:22:57.522Z,22.93
2022-08-01T06:25:37.511Z,23.02
2022-08-01T06:28:06.227Z,23.13
2022-08-01T06:30:35.245Z,23.18
2022-08-01T06:33:04.044Z,23.25
2022-08-01T06:35:42.003Z,23.35
2022-08-01T06:38:31.457Z,23.39
2022-08-01T06:41:03.726Z,23.48
2022-08-01T06:43:38.235Z,23.53
2022-08-01T06:46:35.014Z,23.57
2022-08-01T06:49:20.261Z,23.75
2022-08-01T06:51:48.828Z,23.90
2022-08-01T06:54:19.896Z,23.95
2022-08-01T06:56:59.635Z,24.01
2022-08-01T07:00:11.275Z,24.11
2022-08-01T07:03:22.184Z,24.24
2022-08-01T07:06:11.950Z,24.24
2022-08-01T07:08:45.158Z,24.15
2022-08-01T07:11:16.183Z,24.09
2022-08-01T07:14:15.501Z,24.06
2022-08-01T07:16:47.884Z,24.10
2022-08-01T07:19:21.714Z,24.19
2022-08-01T07:21:55.044Z,24.28
2022-08-01T07:24:57.064Z,24.42
2022-08-01T07:28:05.567Z,24.62
2022-08-01T07:30:34.054Z,24.76
2022-08-01T07:33:11.465Z,24.88
2022-08-01T07:35:43.413Z,24.91
2022-08-01T07:38:28.075Z,25.01
2022-08-01T07:41:53.246Z,25.05
2022-08-01T07:44:21.596Z,25.00
2022-08-01T07:46:58.641Z,24.93
2022-08-01T07:49:50.093Z,25.00
2022-08-01T07:52:46.982Z,25.18
2022-08-01T07:55:47.699Z,25.30
2022-08-01T07:58:41.101Z,25.33
2022-08-01T08:01:13.807Z,25.42
2022-08-01T08:03:50.068Z,25.47
2022-08-01T08:06:52.376Z,25.59
2022-08-01T08:09:23.471Z,25.68
2022-08-01T08:12:29.020Z,25.69
2022-08-01T08:15:05.280Z,25.69
2022-08-01T08:17:45.721Z,25.79
2022-08-01T08:20:30.469Z,25.78
2022-08-01T08:23:00.903Z,25.70
2022-08-01T08:25:48.420Z,25.59
2022-08-01T08:28:26.540Z,25.76
2022-08-01T08:31:25.070Z,25.88
2022-08-01T08:34:00.634Z,26.03
2022-08-01T08:36:58.781Z,25.87
2022-08-01T08:39:59.013Z,26.04
2022-08-01T08:43:19.690Z,26.22
2022-08-01T08:46:00.055Z,26.51
2022-08-01T08:48:40.180Z,26.64
2022-08-01T08:51:33.467Z,26.84
2022-08-01T08:54:45.400Z,27.00
2022-08-01T08:57:30.835Z,27.41
2022-08-01T09:00:22.753Z,27.42
2022-08-01T09:03:21.866Z,27.43
2022-08-01T09:06:31.192Z,27.49
2022-08-01T09:09:01.732Z,28.13
2022-08-01T09:11:57.023Z,28.50
2022-08-01T09:15:10.136Z,28.35
2022-08-01T09:18:22.391Z,29.05
2022-08-01T09:21:15.570Z,29.18
2022-08-01T09:24:31.051Z,29.20
2022-08-01T09:27:34.851Z,29.37
2022-08-01T09:30:44.571Z,29.48
2022-08-01T09:34:04.884Z,30.22
2022-08-01T09:37:53.068Z,30.44
2022-08-01T09:41:26.154Z,30.69
2022-08-01T09:45:41.092Z,31.92
2022-08-01T09:48:59.604Z,31.02
2022-08-01T09:52:19.336Z,31.48
2022-08-01T09:55:31.873Z,31.31
2022-08-01T09:58:06.355Z,31.24
2022-08-01T10:01:23.081Z,30.89
2022-08-01T10:04:40.354Z,30.31
2022-08-01T10:07:43.947Z,30.71
2022-08-01T10:11:12.665Z,30.85
2022-08-01T10:14:25.586Z,31.55
2022-08-01T10:17:50.621Z,32.41
2022-08-01T10:21:56.374Z,33.09
2022-08-01T10:25:04.471Z,32.97
2022-08-01T10:28:49.479Z,33.15
2022-08-01T10:32:39.462Z,32.90
2022-08-01T10:36:10.079Z,32.83
2022-08-01T10:39:40.158Z,32.92
2022-08-01T10:43:26.661Z,32.76
2022-08-01T10:46:47.674Z,32.94
2022-08-01T10:50:21.977Z,32.47
2022-08-01T10:53:58.460Z,32.52
2022-08-01T10:57:30.230Z,32.23
2022-08-01T11:00:45.945Z,31.46
2022-08-01T11:04:35.335Z,31.36
2022-08-01T11:19:10.001Z,30.27
2022-08-01T11:22:43.813Z,30.79
2022-08-01T11:25:13.742Z,31.04
2022-08-01T11:28:15.683Z,30.91
2022-08-01T11:30:56.097Z,30.69
2022-08-01T11:33:46.902Z,30.69
2022-08-01T11:36:18.284Z,30.61
2022-08-01T11:38:48.746Z,30.58
2022-08-01T11:41:36.853Z,30.45
2022-08-01T11:44:14.478Z,29.88
2022-08-01T11:47:15.463Z,28.60
2022-08-01T11:49:49.385Z,27.66
2022-08-01T11:52:47.905Z,27.52
2022-08-01T11:55:22.028Z,27.59
2022-08-01T11:58:03.756Z,27.59
2022-08-01T12:00:36.447Z,27.94
2022-08-01T12:03:34.012Z,28.13
2022-08-01T12:06:12.434Z,28.35
2022-08-01T12:08:41.452Z,28.49
2022-08-01T12:11:13.207Z,28.88
2022-08-01T12:13:45.429Z,29.18
2022-08-01T12:17:09.502Z,29.44
2022-08-01T12:19:42.053Z,29.76
2022-08-01T12:22:17.370Z,29.92
2022-08-01T12:24:46.379Z,30.06
2022-08-01T12:27:40.349Z,30.54
2022-08-01T12:30:27.181Z,30.66
2022-08-01T12:32:57.415Z,29.88
2022-08-01T12:35:54.682Z,29.59
2022-08-01T12:38:28.853Z,29.58
2022-08-01T12:41:23.812Z,29.55
2022-08-01T12:44:13.850Z,29.79
2022-08-01T12:46:59.732Z,29.94
2022-08-01T12:49:49.778Z,30.18
2022-08-01T12:52:26.792Z,30.27
2022-08-01T12:55:57.844Z,30.66
2022-08-01T12:58:41.918Z,30.68
2022-08-01T13:01:48.434Z,30.92
2022-08-01T13:04:49.085Z,31.32
2022-08-01T13:07:21.326Z,31.67
2022-08-01T13:09:54.086Z,31.96
2022-08-01T13:12:34.250Z,32.13
2022-08-01T13:15:26.180Z,32.77
2022-08-01T13:18:02.465Z,33.13
2022-08-01T13:20:40.089Z,33.27
2022-08-01T13:23:19.933Z,33.64
2022-08-01T13:26:09.400Z,34.00
2022-08-01T13:29:09.888Z,33.68
2022-08-01T13:31:45.752Z,33.64
2022-08-01T13:34:40.612Z,33.76
2022-08-01T13:37:18.129Z,33.73
2022-08-01T13:39:50.222Z,33.31
2022-08-01T13:43:01.892Z,32.15
2022-08-01T13:46:31.670Z,31.71
2022-08-01T13:49:24.794Z,31.06
2022-08-01T13:53:05.599Z,30.88
2022-08-01T13:56:11.796Z,31.02
2022-08-01T13:59:17.714Z,31.02
2022-08-01T14:02:42.416Z,30.53
2022-08-01T14:06:01.101Z,30.51
2022-08-01T14:10:05.132Z,30.40
2022-08-01T14:13:36.765Z,30.02
2022-08-01T14:16:12.329Z,29.97
2022-08-01T14:18:56.994Z,30.05
2022-08-01T14:21:55.788Z,29.95
2022-08-01T14:26:03.653Z,30.82
2022-08-01T14:29:03.657Z,31.18
2022-08-01T14:32:19.035Z,31.41
2022-08-01T14:36:20.733Z,30.84
2022-08-01T14:40:02.482Z,30.47
2022-08-01T14:42:30.990Z,30.19
2022-08-01T14:45:33.763Z,30.08
2022-08-01T14:48:05.367Z,29.92
2022-08-01T14:50:33.452Z,29.52
2022-08-01T14:53:23.621Z,29.51
2022-08-01T14:55:55.485Z,29.67
2022-08-01T14:58:26.216Z,29.61
2022-08-01T15:00:58.531Z,29.34
2022-08-01T15:03:27.895Z,29.64
2022-08-01T15:05:59.856Z,30.01
2022-08-01T15:08:28.382Z,30.07
2022-08-01T15:10:56.826Z,30.18
2022-08-01T15:13:26.565Z,29.83
2022-08-01T15:15:55.211Z,29.47
2022-08-01T15:18:30.364Z,29.28
2022-08-01T15:21:03.110Z,29.22
2022-08-01T15:23:31.764Z,29.30
2022-08-01T15:26:00.240Z,29.48
2022-08-01T15:28:32.183Z,29.62
2022-08-01T15:31:02.011Z,29.47
2022-08-01T15:33:31.360Z,29.62
2022-08-01T15:35:59.861Z,29.71
2022-08-01T15:38:29.316Z,29.62
2022-08-01T15:40:58.283Z,29.71
2022-08-01T15:43:27.808Z,29.61
2022-08-01T15:45:58.422Z,29.62
2022-08-01T15:48:26.758Z,29.54
2022-08-01T15:50:54.918Z,29.35
2022-08-01T15:53:35.361Z,28.88
2022-08-01T15:56:04.528Z,28.69
2022-08-01T15:58:38.075Z,28.64
2022-08-01T16:01:06.187Z,28.75
2022-08-01T16:03:37.349Z,28.46
2022-08-01T16:06:05.727Z,28.07
2022-08-01T16:08:34.438Z,28.05
2022-08-01T16:11:13.236Z,28.36
2022-08-01T16:13:46.886Z,28.18
2022-08-01T16:16:17.117Z,28.02
2022-08-01T16:18:53.670Z,28.18
2022-08-01T16:21:25.161Z,28.36
2022-08-01T16:24:03.818Z,28.23
2022-08-01T16:26:32.291Z,28.12
2022-08-01T16:29:00.919Z,28.26
2022-08-01T16:31:56.860Z,28.47
2022-08-01T16:34:33.165Z,28.44
2022-08-01T16:37:03.917Z,28.33
2022-08-01T16:39:58.562Z,28.14
2022-08-01T16:42:29.767Z,27.85
2022-08-01T16:44:59.863Z,27.91
2022-08-01T16:47:28.105Z,27.99
2022-08-01T16:50:02.633Z,28.03
2022-08-01T16:52:31.117Z,27.87
2022-08-01T16:55:03.396Z,27.76
2022-08-01T16:57:38.531Z,27.72
2022-08-01T17:00:21.192Z,27.69
2022-08-01T17:02:51.386Z,27.64
2022-08-01T17:05:23.788Z,27.60
2022-08-01T17:07:53.046Z,27.50
2022-08-01T17:10:21.436Z,27.59
2022-08-01T17:12:53.941Z,27.64
2022-08-01T17:15:23.452Z,27.50
2022-08-01T17:17:56.833Z,27.34
2022-08-01T17:20:25.387Z,27.37
2022-08-01T17:22:53.817Z,27.32
2022-08-01T17:25:22.245Z,27.46
2022-08-01T17:27:53.932Z,27.45
2022-08-01T17:30:22.893Z,27.47
2022-08-01T17:33:03.825Z,27.42
2022-08-01T17:35:35.635Z,27.45
2022-08-01T17:38:04.320Z,27.46
2022-08-01T17:40:41.112Z,27.33
2022-08-01T17:43:10.097Z,27.15
2022-08-01T17:45:51.079Z,27.02
2022-08-01T17:48:20.722Z,26.91
2022-08-01T17:50:49.707Z,26.87
2022-08-01T17:53:21.938Z,26.84
2022-08-01T17:55:54.051Z,26.79
2022-08-01T17:58:45.994Z,26.72
2022-08-01T18:01:16.879Z,26.79
2022-08-01T18:03:46.099Z,26.83
2022-08-01T18:06:19.300Z,26.68
2022-08-01T18:08:49.144Z,26.70
2022-08-01T18:11:17.583Z,26.62
2022-08-01T18:13:46.268Z,26.61
2022-08-01T18:16:18.069Z,26.50
2022-08-01T18:18:46.899Z,26.43
2022-08-01T18:21:19.231Z,26.30
2022-08-01T18:23:52.178Z,26.25
2022-08-01T18:26:22.181Z,26.21
2022-08-01T18:28:50.688Z,26.22
2022-08-01T18:31:24.571Z,26.11
2022-08-01T18:33:56.243Z,26.03
2022-08-01T18:36:33.297Z,26.03
2022-08-01T18:39:06.343Z,25.95
2022-08-01T18:41:39.797Z,26.00
2022-08-01T18:44:09.249Z,26.08
2022-08-01T18:46:40.896Z,26.01
2022-08-01T18:49:12.263Z,25.97
2022-08-01T18:51:44.658Z,25.92
2022-08-01T18:54:17.295Z,25.84
2022-08-01T18:56:45.940Z,25.90
2022-08-01T18:59:14.764Z,25.71
2022-08-01T19:01:44.122Z,25.70
2022-08-01T19:04:16.830Z,25.65
2022-08-01T19:06:47.602Z,25.57
2022-08-01T19:09:20.851Z,25.63
2022-08-01T19:11:50.342Z,25.54
2022-08-01T19:14:18.940Z,25.51
2022-08-01T19:16:48.349Z,25.60
2022-08-01T19:19:22.848Z,25.60
2022-08-01T19:21:57.054Z,25.55
2022-08-01T19:24:25.860Z,25.47
2022-08-01T19:26:57.022Z,25.43
2022-08-01T19:29:35.281Z,25.42
2022-08-01T19:32:06.697Z,25.47
2022-08-01T19:34:42.708Z,25.47
2022-08-01T19:37:15.042Z,25.41
2022-08-01T19:39:45.087Z,25.36
2022-08-01T19:42:14.100Z,25.32
2022-08-01T19:44:46.240Z,25.22
2022-08-01T19:47:17.881Z,25.24
2022-08-01T19:49:49.233Z,25.24
2022-08-01T19:52:26.046Z,25.20
2022-08-01T19:54:57.619Z,25.10
2022-08-01T19:57:45.194Z,25.02
2022-08-01T20:00:25.095Z,24.91
2022-08-01T20:02:59.223Z,24.85
2022-08-01T20:05:32.846Z,24.83
2022-08-01T20:08:03.481Z,24.71
2022-08-01T20:10:36.388Z,24.55
2022-08-01T20:13:06.954Z,24.53
2022-08-01T20:15:35.902Z,24.54
2022-08-01T20:18:05.001Z,24.50
2022-08-01T20:20:35.825Z,24.51
2022-08-01T20:23:17.918Z,24.36
2022-08-01T20:25:52.460Z,24.37
2022-08-01T20:28:31.767Z,24.40
2022-08-01T20:31:05.522Z,24.35
2022-08-01T20:33:47.094Z,24.34
2022-08-01T20:36:25.688Z,24.59
2022-08-01T20:38:56.852Z,24.57
2022-08-01T20:41:27.100Z,24.52
2022-08-01T20:43:57.485Z,24.45
2022-08-01T20:46:31.144Z,24.39
2022-08-01T20:48:59.620Z,24.41
2022-08-01T20:51:29.022Z,24.43
2022-08-01T20:53:57.875Z,24.45
2022-08-01T20:56:34.762Z,24.51
2022-08-01T20:59:39.601Z,24.47
2022-08-01T21:02:50.465Z,24.56
2022-08-01T21:05:35.502Z,24.64
2022-08-01T21:08:22.359Z,24.69
2022-08-01T21:10:57.610Z,24.61
2022-08-01T21:13:41.258Z,24.47
2022-08-01T21:16:22.704Z,24.49
2022-08-01T21:19:19.105Z,24.47
2022-08-01T21:21:57.673Z,24.55
2022-08-01T21:24:34.867Z,24.57
2022-08-01T21:27:04.655Z,24.70
2022-08-01T21:29:34.725Z,24.66
2022-08-01T21:32:15.557Z,24.63
2022-08-01T21:34:47.850Z,24.70
2022-08-01T21:37:17.415Z,24.80
2022-08-01T21:39:47.013Z,24.83
2022-08-01T21:42:18.860Z,24.82
2022-08-01T21:44:48.008Z,24.83
2022-08-01T21:47:17.044Z,24.75
2022-08-01T21:49:45.727Z,24.90
2022-08-01T21:52:21.401Z,24.87
2022-08-01T21:55:10.814Z,24.83
2022-08-01T21:57:56.135Z,24.83
2022-08-01T22:00:25.664Z,24.80
2022-08-01T22:03:19.678Z,24.76
2022-08-01T22:05:51.565Z,24.75
2022-08-01T22:08:27.803Z,24.73
2022-08-01T22:11:02.252Z,24.71
2022-08-01T22:13:30.739Z,24.61
2022-08-01T22:15:59.750Z,24.62
2022-08-01T22:18:28.558Z,24.62
2022-08-01T22:21:00.788Z,24.60
2022-08-01T22:23:30.143Z,24.45
2022-08-01T22:25:59.763Z,24.38
2022-08-01T22:28:29.828Z,24.37
2022-08-01T22:30:59.159Z,24.41
2022-08-01T22:33:28.834Z,24.59
2022-08-01T22:35:57.691Z,24.60
2022-08-01T22:38:27.383Z,24.65
2022-08-01T22:41:04.309Z,24.61
2022-08-01T22:43:41.992Z,24.55
2022-08-01T22:46:23.969Z,24.32
2022-08-01T22:48:56.767Z,24.52
2022-08-01T22:51:55.347Z,24.46
2022-08-01T22:54:37.043Z,24.40
2022-08-01T22:57:11.631Z,24.47
2022-08-01T22:59:54.980Z,24.49
2022-08-01T23:02:23.239Z,24.48
2022-08-01T23:04:59.436Z,24.48
2022-08-01T23:07:33.991Z,24.49
2022-08-01T23:10:05.592Z,24.44
2022-08-01T23:12:34.040Z,24.50
2022-08-01T23:15:02.291Z,24.52
2022-08-01T23:17:31.787Z,24.47
2022-08-01T23:20:06.116Z,24.48
2022-08-01T23:22:35.857Z,24.54
2022-08-01T23:25:09.572Z,24.52
2022-08-01T23:27:54.199Z,24.55
2022-08-01T23:30:32.331Z,24.50
2022-08-01T23:33:01.290Z,24.30
2022-08-01T23:35:30.198Z,24.31
2022-08-01T23:38:02.801Z,24.32
2022-08-01T23:40:32.913Z,24.37
2022-08-01T23:43:02.525Z,24.30
2022-08-01T23:46:02.673Z,24.29
2022-08-01T23:48:19.930Z,24.41
2022-08-01T23:50:48.134Z,24.38
2022-08-01T23:53:16.384Z,24.34
2022-08-01T23:55:44.674Z,24.33
2022-08-01T23:58:12.696Z,24.29
